createdAt,value
2023-01-07T00:02:25.662Z,97.80
2023-01-07T00:04:57.397Z,97.80
2023-01-07T00:07:29.153Z,97.80
2023-01-07T00:10:00.926Z,97.80
2023-01-07T00:12:32.911Z,97.80
2023-01-07T00:15:07.427Z,97.90
2023-01-07T00:17:39.168Z,98.00
2023-01-07T00:20:11.293Z,98.10
2023-01-07T00:22:43.028Z,98.30
2023-01-07T00:25:14.818Z,98.50
2023-01-07T00:27:46.693Z,98.60
2023-01-07T00:30:19.887Z,98.80
2023-01-07T00:33:03.524Z,98.90
2023-01-07T00:35:38.118Z,99.00
2023-01-07T00:38:09.899Z,98.90
2023-01-07T00:40:41.673Z,98.80
2023-01-07T00:43:13.396Z,98.80
2023-01-07T00:45:46.585Z,98.80
2023-01-07T00:48:18.739Z,98.80
2023-01-07T00:50:52.040Z,98.70
2023-01-07T00:53:25.017Z,98.60
2023-01-07T00:55:56.974Z,98.50
2023-01-07T00:58:28.876Z,98.40
2023-01-07T01:01:02.926Z,98.50
2023-01-07T01:03:34.959Z,98.50
2023-01-07T01:06:08.845Z,98.50
2023-01-07T01:08:42.839Z,98.50
2023-01-07T01:11:16.389Z,98.40
2023-01-07T01:13:48.261Z,98.40
2023-01-07T01:16:21.599Z,98.40
2023-01-07T01:18:53.415Z,98.30
2023-01-07T01:21:25.559Z,98.20
2023-01-07T01:23:57.471Z,98.20
2023-01-07T01:26:29.337Z,98.20
2023-01-07T01:29:01.282Z,98.10
2023-01-07T01:31:34.744Z,98.10
2023-01-07T01:34:06.787Z,98.10
2023-01-07T01:36:38.798Z,98.10
2023-01-07T01:39:11.135Z,98.10
2023-01-07T01:41:43.134Z,98.30
2023-01-07T01:44:40.685Z,98.00
2023-01-07T01:47:20.834Z,97.90
2023-01-07T01:49:59.630Z,97.90
2023-01-07T01:52:37.348Z,97.90
2023-01-07T01:55:10.180Z,97.80
2023-01-07T01:57:42.729Z,97.80
2023-01-07T02:00:16.655Z,97.80
2023-01-07T02:02:52.749Z,97.70
2023-01-07T02:05:26.262Z,97.70
2023-01-07T02:07:58.138Z,97.60
2023-01-07T02:10:31.930Z,97.50
2023-01-07T02:13:21.875Z,97.50
2023-01-07T02:16:01.821Z,97.40
2023-01-07T02:18:48.868Z,97.30
2023-01-07T02:21:34.087Z,97.30
2023-01-07T02:24:38.211Z,97.30
2023-01-07T02:27:24.764Z,97.30
2023-01-07T02:30:22.461Z,97.30
2023-01-07T02:33:18.925Z,97.30
2023-01-07T02:36:08.243Z,97.40
2023-01-07T02:38:56.020Z,97.30
2023-01-07T02:41:38.953Z,97.30
2023-01-07T02:44:17.407Z,97.30
2023-01-07T02:46:57.991Z,97.30
2023-01-07T02:49:31.145Z,97.30
2023-01-07T02:52:21.412Z,97.30
2023-01-07T02:54:57.908Z,97.30
2023-01-07T02:57:53.035Z,97.20
2023-01-07T03:00:52.275Z,97.20
2023-01-07T03:03:42.236Z,97.10
2023-01-07T03:06:29.939Z,97.20
2023-01-07T03:09:10.499Z,97.30
2023-01-07T03:11:49.412Z,97.40
2023-01-07T03:14:27.405Z,97.40
2023-01-07T03:17:02.922Z,97.30
2023-01-07T03:19:38.627Z,97.30
2023-01-07T03:22:14.358Z,97.20
2023-01-07T03:24:49.692Z,97.10
2023-01-07T03:27:23.153Z,97.10
2023-01-07T03:29:56.159Z,97.00
2023-01-07T03:32:32.267Z,97.00
2023-01-07T03:35:04.699Z,97.10
2023-01-07T03:37:41.563Z,96.90
2023-01-07T03:40:13.927Z,96.90
2023-01-07T03:42:48.933Z,97.00
2023-01-07T03:45:22.545Z,97.10
2023-01-07T03:47:56.127Z,97.10
2023-01-07T03:50:27.843Z,97.10
2023-01-07T03:53:00.978Z,97.20
2023-01-07T03:55:32.842Z,97.20
2023-01-07T03:58:04.678Z,97.20
2023-01-07T04:00:36.409Z,97.20
2023-01-07T04:03:08.183Z,97.30
2023-01-07T04:05:40.066Z,97.30
2023-01-07T04:08:13.324Z,97.30
2023-01-07T04:10:45.047Z,97.30
2023-01-07T04:13:16.795Z,97.10
2023-01-07T04:15:48.522Z,97.00
2023-01-07T04:18:20.283Z,96.70
2023-01-07T04:20:52.010Z,96.50
2023-01-07T04:23:25.197Z,96.40
2023-01-07T04:25:56.959Z,96.20
2023-01-07T04:28:28.740Z,96.00
2023-01-07T04:31:00.561Z,95.80
2023-01-07T04:33:32.349Z,95.70
2023-01-07T04:36:05.172Z,95.60
2023-01-07T04:38:38.263Z,95.60
2023-01-07T04:41:10.004Z,95.50
2023-01-07T04:43:41.750Z,95.50
2023-01-07T04:46:13.590Z,95.20
2023-01-07T04:48:45.446Z,95.10
2023-01-07T04:51:17.252Z,95.00
2023-01-07T04:53:50.436Z,95.00
2023-01-07T04:56:22.148Z,94.90
2023-01-07T04:58:54.496Z,94.90
2023-01-07T05:01:26.416Z,94.80
2023-01-07T05:03:59.206Z,94.80
2023-01-07T05:06:31.095Z,94.80
2023-01-07T05:09:04.236Z,94.80
2023-01-07T05:11:36.006Z,94.80
2023-01-07T05:14:07.875Z,94.80
2023-01-07T05:16:39.761Z,94.80
2023-01-07T05:19:11.881Z,94.80
2023-01-07T05:21:43.620Z,94.80
2023-01-07T05:24:16.783Z,94.80
2023-01-07T05:26:48.567Z,94.80
2023-01-07T05:29:20.367Z,94.80
2023-01-07T05:31:52.096Z,94.80
2023-01-07T05:34:23.892Z,94.80
2023-01-07T05:36:55.633Z,94.80
2023-01-07T05:39:28.741Z,94.80
2023-01-07T05:42:00.664Z,94.90
2023-01-07T05:44:32.473Z,94.90
2023-01-07T05:47:04.249Z,94.90
2023-01-07T05:49:36.017Z,95.00
2023-01-07T05:52:07.800Z,95.00
2023-01-07T05:54:41.006Z,95.00
2023-01-07T05:57:12.760Z,95.10
2023-01-07T05:59:44.546Z,95.10
2023-01-07T06:02:17.024Z,95.10
2023-01-07T06:04:48.886Z,95.10
2023-01-07T06:07:20.616Z,95.10
2023-01-07T06:09:53.701Z,95.10
2023-01-07T06:12:25.521Z,95.10
2023-01-07T06:14:57.388Z,95.10
2023-01-07T06:17:29.505Z,95.20
2023-01-07T06:20:01.298Z,95.30
2023-01-07T06:22:33.041Z,95.40
2023-01-07T06:25:06.504Z,95.40
2023-01-07T06:27:38.706Z,95.40
2023-01-07T06:30:11.963Z,95.40
2023-01-07T06:32:44.383Z,95.30
2023-01-07T06:35:16.272Z,95.30
2023-01-07T06:37:48.079Z,95.30
2023-01-07T06:40:21.172Z,95.30
2023-01-07T06:42:53.244Z,95.30
2023-01-07T06:45:24.945Z,95.30
2023-01-07T06:47:58.403Z,95.30
2023-01-07T06:50:30.322Z,95.30
2023-01-07T06:53:02.039Z,95.30
2023-01-07T06:55:35.166Z,95.30
2023-01-07T06:58:06.859Z,95.20
2023-01-07T07:00:38.550Z,95.20
2023-01-07T07:03:10.364Z,95.10
2023-01-07T07:05:42.180Z,95.10
2023-01-07T07:08:13.913Z,95.10
2023-01-07T07:10:46.968Z,95.10
2023-01-07T07:13:18.711Z,95.00
2023-01-07T07:15:50.490Z,95.00
2023-01-07T07:18:22.207Z,95.00
2023-01-07T07:20:54.008Z,95.00
2023-01-07T07:23:25.938Z,95.00
2023-01-07T07:25:59.027Z,95.00
2023-01-07T07:28:30.867Z,95.00
2023-01-07T07:31:02.742Z,95.00
2023-01-07T07:33:34.510Z,95.00
2023-01-07T07:36:07.116Z,95.00
2023-01-07T07:38:38.819Z,95.00
2023-01-07T07:41:11.894Z,95.00
2023-01-07T07:43:43.627Z,95.00
2023-01-07T07:46:15.594Z,95.00
2023-01-07T07:48:48.898Z,95.00
2023-01-07T07:51:20.646Z,95.00
2023-01-07T07:53:52.496Z,95.00
2023-01-07T07:56:25.562Z,95.00
2023-01-07T07:58:57.272Z,95.00
2023-01-07T08:01:29.216Z,95.00
2023-01-07T08:04:00.999Z,95.00
2023-01-07T08:06:34.167Z,95.00
2023-01-07T08:09:05.944Z,95.00
2023-01-07T08:11:39.118Z,95.00
2023-01-07T08:14:10.817Z,95.10
2023-01-07T08:16:42.559Z,95.10
2023-01-07T08:19:15.182Z,95.20
2023-01-07T08:21:48.936Z,95.20
2023-01-07T08:24:20.771Z,95.30
2023-01-07T08:26:55.697Z,95.30
2023-01-07T08:29:27.489Z,95.30
2023-01-07T08:31:59.228Z,95.40
2023-01-07T08:34:30.977Z,95.30
2023-01-07T08:37:02.738Z,95.40
2023-01-07T08:39:34.514Z,95.30
2023-01-07T08:42:07.852Z,95.30
2023-01-07T08:44:39.651Z,95.20
2023-01-07T08:47:11.394Z,95.30
2023-01-07T08:49:43.189Z,95.30
2023-01-07T08:52:14.896Z,95.30
2023-01-07T08:54:48.091Z,95.30
2023-01-07T08:57:21.204Z,95.30
2023-01-07T08:59:52.960Z,95.30
2023-01-07T09:02:25.119Z,95.30
2023-01-07T09:04:56.847Z,95.20
2023-01-07T09:07:28.757Z,95.20
2023-01-07T09:10:00.649Z,95.20
2023-01-07T09:12:33.907Z,95.20
2023-01-07T09:15:06.774Z,95.10
2023-01-07T09:17:38.736Z,95.00
2023-01-07T09:20:10.820Z,95.00
2023-01-07T09:22:42.588Z,94.90
2023-01-07T09:25:14.380Z,94.90
2023-01-07T09:27:47.727Z,94.90
2023-01-07T09:30:19.710Z,94.80
2023-01-07T09:32:51.595Z,94.70
2023-01-07T09:35:23.412Z,94.60
2023-01-07T09:37:55.353Z,94.40
2023-01-07T09:40:30.065Z,94.40
2023-01-07T09:43:08.781Z,94.20
2023-01-07T09:45:45.589Z,94.10
2023-01-07T09:48:24.749Z,93.80
2023-01-07T09:50:59.143Z,93.60
2023-01-07T09:53:34.043Z,93.30
2023-01-07T09:56:12.966Z,93.30
2023-01-07T09:58:47.357Z,93.20
2023-01-07T10:01:27.302Z,93.10
2023-01-07T10:04:15.482Z,92.80
2023-01-07T10:06:53.971Z,92.70
2023-01-07T10:09:36.069Z,92.70
2023-01-07T10:12:16.512Z,92.70
2023-01-07T10:15:02.897Z,92.50
2023-01-07T10:17:44.103Z,92.40
2023-01-07T10:20:21.071Z,92.40
2023-01-07T10:22:57.860Z,92.30
2023-01-07T10:25:35.310Z,92.30
2023-01-07T10:28:13.185Z,92.00
2023-01-07T10:30:52.129Z,92.00
2023-01-07T10:33:26.839Z,91.80
2023-01-07T10:36:06.799Z,91.70
2023-01-07T10:38:42.399Z,91.60
2023-01-07T10:41:20.086Z,91.40
2023-01-07T10:44:05.557Z,91.30
2023-01-07T10:46:55.321Z,91.30
2023-01-07T10:49:44.675Z,91.20
2023-01-07T10:52:31.699Z,91.20
2023-01-07T10:55:34.475Z,91.00
2023-01-07T10:58:09.527Z,91.00
2023-01-07T11:00:41.775Z,90.90
2023-01-07T11:03:20.376Z,91.10
2023-01-07T11:05:57.368Z,90.90
2023-01-07T11:08:36.207Z,90.70
2023-01-07T11:11:14.319Z,90.60
2023-01-07T11:13:54.603Z,90.40
2023-01-07T11:16:31.491Z,90.20
2023-01-07T11:19:07.139Z,90.20
2023-01-07T11:21:42.440Z,90.20
2023-01-07T11:24:31.415Z,90.20
2023-01-07T11:27:06.634Z,90.40
2023-01-07T11:29:43.553Z,90.20
2023-01-07T11:32:21.408Z,90.20
2023-01-07T11:35:00.907Z,90.10
2023-01-07T11:37:35.983Z,90.00
2023-01-07T11:40:20.291Z,90.20
2023-01-07T11:42:56.571Z,89.90
2023-01-07T11:45:31.702Z,89.90
2023-01-07T11:48:09.288Z,90.00
2023-01-07T11:50:44.394Z,89.90
2023-01-07T11:53:34.983Z,89.70
2023-01-07T11:56:10.055Z,89.10
2023-01-07T11:58:44.873Z,89.00
2023-01-07T12:01:19.775Z,89.00
2023-01-07T12:04:13.712Z,89.40
2023-01-07T12:06:47.931Z,90.40
2023-01-07T12:09:35.962Z,91.00
2023-01-07T12:12:31.613Z,90.90
2023-01-07T12:15:16.283Z,90.70
2023-01-07T12:17:52.183Z,90.60
2023-01-07T12:20:47.177Z,89.80
2023-01-07T12:23:30.397Z,88.20
2023-01-07T12:26:10.740Z,87.60
2023-01-07T12:28:57.419Z,86.50
2023-01-07T12:31:40.247Z,84.30
2023-01-07T12:34:26.277Z,81.30
2023-01-07T12:37:02.097Z,76.90
2023-01-07T12:39:38.895Z,75.20
2023-01-07T12:42:17.224Z,73.30
2023-01-07T12:44:51.794Z,71.20
2023-01-07T12:47:30.743Z,70.50
2023-01-07T12:50:11.290Z,69.80
2023-01-07T12:52:46.793Z,67.50
2023-01-07T12:55:23.199Z,66.30
2023-01-07T12:58:08.947Z,65.70
2023-01-07T13:00:46.629Z,64.70
2023-01-07T13:03:28.536Z,64.70
2023-01-07T13:06:05.675Z,63.20
2023-01-07T13:08:43.127Z,62.60
2023-01-07T13:11:41.498Z,61.70
2023-01-07T13:14:19.727Z,60.10
2023-01-07T13:16:51.469Z,59.90
2023-01-07T13:19:23.367Z,59.90
2023-01-07T13:21:55.340Z,59.20
2023-01-07T13:24:56.416Z,58.50
2023-01-07T13:27:55.886Z,58.50
2023-01-07T13:30:35.607Z,58.70
2023-01-07T13:33:15.726Z,58.50
2023-01-07T13:36:01.754Z,58.10
2023-01-07T13:38:50.037Z,57.90
2023-01-07T13:41:42.547Z,58.00
2023-01-07T13:44:37.352Z,58.10
2023-01-07T13:47:12.798Z,58.10
2023-01-07T13:49:56.500Z,58.90
2023-01-07T13:52:32.212Z,58.80
2023-01-07T13:55:34.146Z,58.90
2023-01-07T13:58:43.915Z,59.00
2023-01-07T14:01:18.154Z,59.50
2023-01-07T14:03:50.812Z,59.90
2023-01-07T14:06:41.948Z,60.50
2023-01-07T14:09:33.038Z,60.90
2023-01-07T14:12:35.459Z,61.30
2023-01-07T14:15:32.237Z,61.70
2023-01-07T14:18:28.738Z,62.10
2023-01-07T14:21:10.891Z,62.60
2023-01-07T14:23:53.147Z,62.90
2023-01-07T14:26:33.027Z,63.20
2023-01-07T14:29:37.288Z,63.50
2023-01-07T14:32:24.841Z,63.80
2023-01-07T14:34:59.252Z,64.10
2023-01-07T14:37:36.830Z,64.30
2023-01-07T14:41:01.183Z,64.50
2023-01-07T14:44:08.773Z,64.80
2023-01-07T14:46:46.805Z,65.10
2023-01-07T14:50:04.514Z,65.30
2023-01-07T14:53:13.449Z,65.40
2023-01-07T14:55:57.171Z,65.60
2023-01-07T14:58:43.273Z,65.70
2023-01-07T15:01:44.178Z,65.90
2023-01-07T15:05:01.642Z,66.00
2023-01-07T15:07:37.180Z,66.20
2023-01-07T15:10:38.708Z,66.30
2023-01-07T15:13:34.963Z,66.40
2023-01-07T15:16:11.440Z,66.60
2023-01-07T15:18:48.197Z,66.70
2023-01-07T15:21:34.462Z,66.80
2023-01-07T15:24:14.550Z,67.00
2023-01-07T15:26:53.321Z,67.00
2023-01-07T15:29:33.824Z,67.40
2023-01-07T15:32:14.900Z,67.20
2023-01-07T15:34:47.309Z,67.20
2023-01-07T15:37:20.845Z,67.30
2023-01-07T15:39:55.588Z,67.40
2023-01-07T15:42:29.029Z,67.50
2023-01-07T15:45:01.174Z,67.50
2023-01-07T15:47:39.073Z,67.60
2023-01-07T15:50:26.827Z,67.70
2023-01-07T15:53:01.636Z,67.90
2023-01-07T15:55:37.370Z,68.00
2023-01-07T15:58:15.859Z,68.30
2023-01-07T16:00:50.913Z,68.50
2023-01-07T16:03:23.099Z,68.80
2023-01-07T16:05:56.121Z,68.80
2023-01-07T16:08:32.163Z,68.90
2023-01-07T16:11:05.997Z,68.90
2023-01-07T16:13:37.956Z,68.90
2023-01-07T16:16:16.283Z,68.80
2023-01-07T16:18:54.753Z,68.80
2023-01-07T16:21:28.980Z,69.10
2023-01-07T16:24:02.284Z,69.70
2023-01-07T16:26:37.631Z,71.00
2023-01-07T16:29:16.072Z,71.70
2023-01-07T16:31:48.185Z,72.00
2023-01-07T16:34:53.626Z,71.90
2023-01-07T16:37:26.540Z,71.30
2023-01-07T16:40:00.016Z,70.80
2023-01-07T16:42:31.954Z,70.20
2023-01-07T16:45:09.532Z,69.60
2023-01-07T16:47:41.262Z,69.20
2023-01-07T16:50:38.711Z,68.70
2023-01-07T16:53:26.317Z,68.20
2023-01-07T16:56:14.873Z,67.80
2023-01-07T16:58:52.962Z,67.40
2023-01-07T17:01:32.222Z,67.20
2023-01-07T17:04:09.706Z,66.90
2023-01-07T17:06:43.157Z,66.70
2023-01-07T17:09:22.509Z,66.50
2023-01-07T17:11:55.983Z,66.30
2023-01-07T17:14:47.051Z,66.20
2023-01-07T17:17:25.612Z,65.90
2023-01-07T17:20:13.532Z,65.80
2023-01-07T17:22:47.124Z,65.60
2023-01-07T17:25:24.573Z,65.50
2023-01-07T17:28:00.310Z,65.30
2023-01-07T17:30:35.575Z,65.10
2023-01-07T17:33:07.359Z,64.90
2023-01-07T17:35:44.516Z,64.80
2023-01-07T17:38:17.887Z,64.70
2023-01-07T17:40:49.603Z,64.70
2023-01-07T17:43:39.439Z,64.80
2023-01-07T17:46:12.564Z,64.80
2023-01-07T17:48:44.331Z,64.80
2023-01-07T17:51:16.391Z,64.80
2023-01-07T17:53:50.041Z,64.90
2023-01-07T17:56:21.885Z,64.90
2023-01-07T17:58:56.146Z,65.00
2023-01-07T18:01:28.419Z,65.00
2023-01-07T18:04:00.290Z,65.00
2023-01-07T18:06:34.842Z,65.00
2023-01-07T18:09:08.536Z,65.00
2023-01-07T18:12:01.616Z,65.00
2023-01-07T18:14:34.824Z,64.90
2023-01-07T18:17:07.360Z,65.00
2023-01-07T18:19:39.807Z,65.00
2023-01-07T18:22:11.548Z,64.80
2023-01-07T18:24:43.975Z,64.80
2023-01-07T18:27:16.963Z,64.70
2023-01-07T18:29:50.032Z,64.70
2023-01-07T18:32:21.786Z,64.60
2023-01-07T18:34:53.667Z,64.60
2023-01-07T18:37:25.471Z,64.60
2023-01-07T18:40:02.095Z,64.60
2023-01-07T18:42:34.811Z,64.50
2023-01-07T18:45:09.136Z,64.50
2023-01-07T18:47:42.849Z,64.40
2023-01-07T18:50:15.614Z,64.50
2023-01-07T18:52:47.394Z,64.50
2023-01-07T18:55:19.478Z,64.40
2023-01-07T18:57:51.244Z,64.30
2023-01-07T19:00:24.400Z,64.30
2023-01-07T19:02:58.154Z,64.30
2023-01-07T19:05:30.326Z,64.30
2023-01-07T19:08:02.040Z,64.20
2023-01-07T19:10:33.972Z,64.20
2023-01-07T19:13:05.714Z,64.20
2023-01-07T19:15:40.886Z,64.20
2023-01-07T19:18:12.864Z,64.20
2023-01-07T19:20:44.758Z,64.30
2023-01-07T19:23:16.532Z,64.40
2023-01-07T19:25:57.152Z,63.80
2023-01-07T19:28:28.989Z,63.70
2023-01-07T19:31:05.041Z,63.70
2023-01-07T19:33:37.355Z,64.00
2023-01-07T19:36:11.393Z,64.40
2023-01-07T19:38:44.874Z,65.00
2023-01-07T19:41:18.298Z,66.10
2023-01-07T19:43:52.153Z,66.80
2023-01-07T19:46:26.352Z,67.10
2023-01-07T19:48:58.189Z,67.40
2023-01-07T19:51:29.988Z,67.40
2023-01-07T19:54:02.298Z,67.20
2023-01-07T19:56:36.312Z,67.10
2023-01-07T19:59:08.120Z,67.00
2023-01-07T20:01:42.029Z,66.90
2023-01-07T20:04:14.009Z,66.70
2023-01-07T20:06:46.766Z,66.60
2023-01-07T20:09:18.944Z,66.40
2023-01-07T20:11:50.756Z,66.30
2023-01-07T20:14:22.566Z,66.10
2023-01-07T20:16:55.776Z,65.90
2023-01-07T20:19:27.750Z,65.80
2023-01-07T20:21:59.567Z,65.60
2023-01-07T20:24:32.837Z,65.50
2023-01-07T20:27:04.650Z,65.50
2023-01-07T20:29:36.992Z,65.40
2023-01-07T20:32:10.189Z,65.60
2023-01-07T20:34:41.906Z,65.50
2023-01-07T20:37:13.685Z,65.40
2023-01-07T20:39:45.405Z,65.40
2023-01-07T20:42:17.131Z,65.20
2023-01-07T20:44:51.519Z,65.20
2023-01-07T20:47:24.567Z,65.20
2023-01-07T20:49:56.313Z,65.20
2023-01-07T20:52:28.413Z,65.20
2023-01-07T20:55:00.299Z,65.20
2023-01-07T20:57:32.044Z,65.20
2023-01-07T21:00:04.753Z,65.20
2023-01-07T21:02:38.069Z,65.20
2023-01-07T21:05:10.430Z,65.20
2023-01-07T21:07:43.263Z,65.20
2023-01-07T21:10:16.868Z,65.10
2023-01-07T21:12:48.604Z,65.10
2023-01-07T21:15:20.454Z,65.50
2023-01-07T21:17:54.563Z,65.00
2023-01-07T21:20:26.329Z,64.90
2023-01-07T21:22:58.137Z,64.90
2023-01-07T21:25:30.029Z,64.80
2023-01-07T21:28:02.144Z,64.80
2023-01-07T21:30:34.229Z,64.80
2023-01-07T21:33:07.319Z,64.70
2023-01-07T21:35:40.291Z,64.60
2023-01-07T21:38:12.121Z,64.60
2023-01-07T21:40:43.983Z,64.50
2023-01-07T21:43:15.788Z,64.50
2023-01-07T21:45:47.630Z,64.50
2023-01-07T21:48:20.763Z,64.50
2023-01-07T21:50:52.502Z,64.40
2023-01-07T21:53:24.255Z,64.40
2023-01-07T21:55:56.004Z,64.40
2023-01-07T21:58:27.721Z,64.40
2023-01-07T22:00:59.553Z,64.40
2023-01-07T22:03:33.372Z,64.30
2023-01-07T22:06:07.575Z,64.30
2023-01-07T22:08:39.318Z,64.30
2023-01-07T22:11:12.744Z,64.20
2023-01-07T22:13:44.379Z,64.20
2023-01-07T22:16:16.148Z,64.30
2023-01-07T22:18:49.858Z,64.30
2023-01-07T22:21:22.022Z,64.20
2023-01-07T22:23:53.754Z,64.20
2023-01-07T22:26:25.620Z,64.10
2023-01-07T22:29:00.827Z,64.10
2023-01-07T22:31:38.470Z,64.00
2023-01-07T22:34:11.583Z,64.00
2023-01-07T22:36:46.535Z,64.00
2023-01-07T22:39:22.785Z,63.80
2023-01-07T22:41:59.217Z,63.90
2023-01-07T22:44:36.547Z,64.10
2023-01-07T22:47:10.904Z,64.20
2023-01-07T22:49:44.270Z,64.80
2023-01-07T22:52:16.027Z,64.30
2023-01-07T22:54:47.877Z,64.30
2023-01-07T22:57:19.786Z,64.40
2023-01-07T22:59:51.539Z,64.30
2023-01-07T23:02:23.288Z,64.30
2023-01-07T23:04:56.370Z,64.30
2023-01-07T23:07:28.602Z,64.20
2023-01-07T23:10:00.376Z,64.20
2023-01-07T23:12:32.117Z,64.20
2023-01-07T23:15:04.345Z,64.20
2023-01-07T23:17:36.067Z,64.10
2023-01-07T23:20:09.878Z,64.00
2023-01-07T23:22:41.635Z,64.00
2023-01-07T23:25:13.394Z,64.40
2023-01-07T23:27:45.152Z,63.80
2023-01-07T23:30:17.157Z,63.70
2023-01-07T23:32:48.881Z,63.80
2023-01-07T23:35:21.968Z,63.70
2023-01-07T23:37:53.705Z,63.60
2023-01-07T23:40:25.433Z,63.60
2023-01-07T23:42:57.807Z,63.60
2023-01-07T23:45:29.676Z,63.60
2023-01-07T23:48:01.495Z,64.10
2023-01-07T23:50:34.594Z,63.50
2023-01-07T23:53:06.305Z,63.50
2023-01-07T23:55:39.134Z,63.50
2023-01-07T23:58:10.907Z,63.50
